Terminal Aerodrome Forecast
Issued by NWS

Current Version | Previous Version | Text Only | Print | Product List | Glossary On
Versions: 1 2 3 4 5 6 7 8 9 10 11 12 13 14 15 16 17 18 19
000
FTUS46 KSEW 302300
TAFSEA
TAF
KSEA 302320Z 3100/0106 02010KT P6SM SCT250
     FM310400 02007KT P6SM SKC
     FM311000 03004KT P6SM SKC
     FM312000 32009KT P6SM SKC=

USA.gov is the U.S. government's official web portal to all federal, state and local government web resources and services.